createdAt,value
2023-02-23T00:01:41.908Z,15.90
2023-02-23T00:04:10.526Z,16.08
2023-02-23T00:06:39.564Z,16.04
2023-02-23T00:09:22.875Z,15.89
2023-02-23T00:11:51.518Z,16.11
2023-02-23T00:14:21.426Z,15.91
2023-02-23T00:16:49.460Z,15.68
2023-02-23T00:19:17.702Z,16.09
2023-02-23T00:21:46.759Z,15.99
2023-02-23T00:24:16.712Z,16.16
2023-02-23T00:26:45.374Z,15.70
2023-02-23T00:29:17.416Z,15.76
2023-02-23T00:31:47.402Z,16.09
2023-02-23T00:34:16.940Z,15.69
2023-02-23T00:36:44.922Z,16.00
2023-02-23T00:39:21.582Z,15.92
2023-02-23T00:41:50.281Z,15.94
2023-02-23T00:44:18.220Z,15.82
2023-02-23T00:46:49.610Z,16.00
2023-02-23T00:49:18.142Z,15.73
2023-02-23T00:51:46.920Z,15.87
2023-02-23T00:54:16.142Z,15.83
2023-02-23T00:56:44.200Z,16.10
2023-02-23T00:59:13.150Z,15.95
2023-02-23T01:01:42.808Z,16.18
2023-02-23T01:04:14.009Z,15.75
2023-02-23T01:06:43.105Z,16.07
2023-02-23T01:09:13.961Z,15.99
2023-02-23T01:11:42.433Z,16.24
2023-02-23T01:14:12.100Z,15.99
2023-02-23T01:16:42.256Z,15.91
2023-02-23T01:19:13.386Z,16.06
2023-02-23T01:21:43.954Z,15.80
2023-02-23T01:24:13.670Z,16.10
2023-02-23T01:26:44.802Z,15.98
2023-02-23T01:29:14.979Z,15.84
2023-02-23T01:31:45.634Z,15.97
2023-02-23T01:34:19.510Z,16.33
2023-02-23T01:36:47.715Z,16.26
2023-02-23T01:39:18.135Z,16.26
2023-02-23T01:41:46.669Z,16.18
2023-02-23T01:44:53.251Z,16.22
2023-02-23T01:47:21.506Z,16.59
2023-02-23T01:49:51.222Z,16.41
2023-02-23T01:52:20.838Z,16.46
2023-02-23T01:54:53.006Z,16.69
2023-02-23T01:57:26.982Z,16.57
2023-02-23T01:59:56.111Z,16.41
2023-02-23T02:02:33.140Z,16.54
2023-02-23T02:05:05.117Z,16.44
2023-02-23T02:07:35.973Z,16.44
2023-02-23T02:10:39.656Z,16.83
2023-02-23T02:13:09.823Z,16.80
2023-02-23T02:15:53.821Z,17.02
2023-02-23T02:18:31.313Z,16.56
2023-02-23T02:21:36.029Z,16.84
2023-02-23T02:24:36.845Z,17.01
2023-02-23T02:27:21.885Z,17.06
2023-02-23T02:30:28.582Z,17.29
2023-02-23T02:33:23.678Z,17.12
2023-02-23T02:36:15.789Z,17.26
2023-02-23T02:38:54.953Z,17.40
2023-02-23T02:41:35.578Z,17.01
2023-02-23T02:44:12.172Z,17.08
2023-02-23T02:46:44.654Z,17.42
2023-02-23T02:49:17.741Z,17.30
2023-02-23T02:51:52.738Z,17.36
2023-02-23T02:54:29.169Z,17.58
2023-02-23T02:57:01.018Z,17.25
2023-02-23T02:59:46.810Z,17.34
2023-02-23T03:02:35.674Z,17.50
2023-02-23T03:05:22.237Z,17.66
2023-02-23T03:08:17.656Z,17.78
2023-02-23T03:11:10.658Z,17.86
2023-02-23T03:14:07.115Z,17.61
2023-02-23T03:17:01.538Z,17.95
2023-02-23T03:19:49.910Z,17.82
2023-02-23T03:22:40.995Z,17.65
2023-02-23T03:25:32.258Z,17.65
2023-02-23T03:28:30.126Z,17.57
2023-02-23T03:31:25.453Z,17.98
2023-02-23T03:34:19.314Z,17.84
2023-02-23T03:37:09.592Z,17.78
2023-02-23T03:39:59.895Z,17.78
2023-02-23T03:42:49.295Z,17.85
2023-02-23T03:45:40.143Z,17.72
2023-02-23T03:48:29.394Z,17.81
2023-02-23T03:51:18.560Z,18.07
2023-02-23T03:54:12.469Z,17.91
2023-02-23T03:57:01.613Z,18.13
2023-02-23T03:59:52.670Z,17.95
2023-02-23T04:02:41.315Z,17.98
2023-02-23T04:05:36.606Z,17.89
2023-02-23T04:08:25.889Z,18.08
2023-02-23T04:11:19.672Z,17.96
2023-02-23T04:13:51.792Z,18.07
2023-02-23T04:16:19.485Z,17.95
2023-02-23T04:18:48.801Z,17.92
2023-02-23T04:21:17.153Z,17.89
2023-02-23T04:23:45.386Z,17.75
2023-02-23T04:26:13.639Z,18.18
2023-02-23T04:28:41.600Z,18.10
2023-02-23T04:31:09.595Z,17.93
2023-02-23T04:33:37.646Z,17.86
2023-02-23T04:36:07.571Z,17.99
2023-02-23T04:38:35.457Z,17.98
2023-02-23T04:41:03.337Z,18.11
2023-02-23T04:43:31.337Z,18.18
2023-02-23T04:45:59.442Z,17.99
2023-02-23T04:48:27.452Z,17.97
2023-02-23T04:50:55.819Z,18.11
2023-02-23T04:53:27.142Z,18.14
2023-02-23T04:55:55.244Z,17.77
2023-02-23T04:58:23.226Z,18.08
2023-02-23T05:00:51.236Z,18.11
2023-02-23T05:03:19.217Z,18.27
2023-02-23T05:05:47.211Z,18.19
2023-02-23T05:08:15.194Z,18.36
2023-02-23T05:10:44.579Z,18.27
2023-02-23T05:13:12.582Z,18.28
2023-02-23T05:15:40.787Z,18.58
2023-02-23T05:18:08.983Z,18.41
2023-02-23T05:20:37.051Z,18.35
2023-02-23T05:23:05.169Z,18.31
2023-02-23T05:25:33.446Z,18.09
2023-02-23T05:28:02.699Z,18.49
2023-02-23T05:30:30.754Z,18.42
2023-02-23T05:32:58.823Z,18.40
2023-02-23T05:35:26.958Z,18.58
2023-02-23T05:37:54.908Z,18.64
2023-02-23T05:40:22.964Z,18.42
2023-02-23T05:42:50.950Z,18.33
2023-02-23T05:45:20.427Z,18.27
2023-02-23T05:47:49.281Z,18.71
2023-02-23T05:50:17.221Z,18.44
2023-02-23T05:52:45.364Z,18.69
2023-02-23T05:55:13.546Z,18.62
2023-02-23T05:57:42.762Z,18.55
2023-02-23T06:00:13.499Z,18.62
2023-02-23T06:02:43.037Z,18.54
2023-02-23T06:05:11.694Z,18.30
2023-02-23T06:07:39.868Z,18.59
2023-02-23T06:10:08.491Z,18.59
2023-02-23T06:12:36.690Z,18.44
2023-02-23T06:15:05.275Z,18.60
2023-02-23T06:17:33.741Z,18.50
2023-02-23T06:20:04.800Z,18.54
2023-02-23T06:22:32.800Z,18.53
2023-02-23T06:25:00.764Z,18.48
2023-02-23T06:27:28.736Z,18.61
2023-02-23T06:29:56.976Z,18.61
2023-02-23T06:32:25.479Z,18.67
2023-02-23T06:34:53.468Z,18.59
2023-02-23T06:37:22.758Z,18.45
2023-02-23T06:39:50.980Z,18.65
2023-02-23T06:42:18.967Z,18.51
2023-02-23T06:44:46.946Z,18.64
2023-02-23T06:47:15.015Z,18.51
2023-02-23T06:49:43.056Z,18.48
2023-02-23T06:52:13.478Z,18.57
2023-02-23T06:54:43.167Z,18.51
2023-02-23T06:57:11.098Z,18.43
2023-02-23T06:59:39.321Z,18.74
2023-02-23T07:02:07.567Z,18.47
2023-02-23T07:04:35.620Z,18.79
2023-02-23T07:07:03.772Z,18.57
2023-02-23T07:09:31.936Z,18.83
2023-02-23T07:12:01.669Z,18.47
2023-02-23T07:14:29.551Z,18.79
2023-02-23T07:16:57.620Z,18.82
2023-02-23T07:19:25.540Z,18.68
2023-02-23T07:21:53.646Z,18.84
2023-02-23T07:24:21.972Z,19.02
2023-02-23T07:26:50.311Z,19.07
2023-02-23T07:29:20.153Z,18.64
2023-02-23T07:31:50.054Z,18.88
2023-02-23T07:34:18.387Z,18.64
2023-02-23T07:36:46.426Z,19.00
2023-02-23T07:39:14.491Z,18.96
2023-02-23T07:41:42.562Z,18.75
2023-02-23T07:44:20.831Z,18.90
2023-02-23T07:46:49.588Z,18.89
2023-02-23T07:49:17.601Z,18.98
2023-02-23T07:51:45.600Z,18.90
2023-02-23T07:54:13.548Z,19.09
2023-02-23T07:56:41.523Z,19.28
2023-02-23T07:59:09.523Z,19.06
2023-02-23T08:01:38.967Z,19.07
2023-02-23T08:04:07.174Z,19.08
2023-02-23T08:06:35.063Z,19.21
2023-02-23T08:09:04.761Z,19.34
2023-02-23T08:11:32.846Z,19.29
2023-02-23T08:14:01.041Z,19.65
2023-02-23T08:16:29.700Z,19.04
2023-02-23T08:18:59.563Z,19.41
2023-02-23T08:21:29.344Z,19.32
2023-02-23T08:23:57.580Z,19.05
2023-02-23T08:26:26.105Z,19.11
2023-02-23T08:28:54.341Z,19.83
2023-02-23T08:31:24.411Z,20.26
2023-02-23T08:33:53.627Z,21.29
2023-02-23T08:36:23.318Z,22.24
2023-02-23T08:38:51.575Z,21.78
2023-02-23T08:41:19.936Z,21.83
2023-02-23T08:43:48.806Z,21.19
2023-02-23T08:46:18.858Z,20.90
2023-02-23T08:48:47.029Z,20.83
2023-02-23T08:51:15.668Z,20.69
2023-02-23T08:53:45.058Z,20.37
2023-02-23T08:56:14.745Z,20.79
2023-02-23T08:58:43.703Z,20.27
2023-02-23T09:01:19.079Z,20.44
2023-02-23T09:03:47.408Z,20.25
2023-02-23T09:06:19.295Z,20.27
2023-02-23T09:08:48.760Z,19.98
2023-02-23T09:11:16.777Z,19.76
2023-02-23T09:13:45.702Z,19.58
2023-02-23T09:16:13.742Z,19.85
2023-02-23T09:18:41.936Z,19.81
2023-02-23T09:21:18.928Z,19.69
2023-02-23T09:23:51.477Z,19.91
2023-02-23T09:26:21.138Z,19.79
2023-02-23T09:28:49.649Z,19.51
2023-02-23T09:31:20.637Z,19.65
2023-02-23T09:33:48.979Z,19.37
2023-02-23T09:36:19.015Z,19.33
2023-02-23T09:38:52.357Z,19.32
2023-02-23T09:41:52.297Z,19.72
2023-02-23T09:44:32.241Z,19.18
2023-02-23T09:47:11.413Z,19.54
2023-02-23T09:49:43.527Z,19.43
2023-02-23T09:52:19.326Z,19.74
2023-02-23T09:54:49.297Z,19.52
2023-02-23T09:57:23.727Z,19.91
2023-02-23T09:59:51.812Z,20.01
2023-02-23T10:02:30.554Z,19.66
2023-02-23T10:05:03.311Z,20.11
2023-02-23T10:07:38.884Z,19.59
2023-02-23T10:10:22.389Z,20.02
2023-02-23T10:13:01.500Z,19.81
2023-02-23T10:15:37.227Z,20.41
2023-02-23T10:18:16.083Z,20.62
2023-02-23T10:20:50.932Z,20.73
2023-02-23T10:23:25.272Z,20.83
2023-02-23T10:25:59.444Z,20.94
2023-02-23T10:28:29.723Z,20.95
2023-02-23T10:30:58.825Z,20.38
2023-02-23T10:33:34.917Z,20.39
2023-02-23T10:36:16.561Z,20.66
2023-02-23T10:38:44.604Z,19.97
2023-02-23T10:41:15.037Z,19.96
2023-02-23T10:43:43.543Z,20.37
2023-02-23T10:46:18.580Z,19.80
2023-02-23T10:48:48.654Z,19.79
2023-02-23T10:51:22.727Z,19.74
2023-02-23T10:53:52.941Z,20.23
2023-02-23T10:56:24.320Z,19.88
2023-02-23T10:58:55.138Z,19.56
2023-02-23T11:01:41.931Z,19.92
2023-02-23T11:04:20.430Z,19.68
2023-02-23T11:06:48.679Z,19.95
2023-02-23T11:09:41.744Z,19.90
2023-02-23T11:12:25.527Z,19.82
2023-02-23T11:14:55.160Z,19.88
2023-02-23T11:17:33.073Z,19.49
2023-02-23T11:20:03.739Z,19.51
2023-02-23T11:22:37.465Z,19.49
2023-02-23T11:25:16.810Z,19.55
2023-02-23T11:27:51.630Z,19.89
2023-02-23T11:30:24.585Z,19.71
2023-02-23T11:32:54.373Z,19.42
2023-02-23T11:35:31.724Z,19.63
2023-02-23T11:37:59.898Z,19.53
2023-02-23T11:40:30.084Z,19.58
2023-02-23T11:43:08.571Z,19.76
2023-02-23T11:45:45.958Z,19.59
2023-02-23T11:48:23.493Z,19.81
2023-02-23T11:50:51.757Z,19.44
2023-02-23T11:53:28.460Z,19.33
2023-02-23T11:56:07.908Z,19.73
2023-02-23T11:58:40.527Z,19.67
2023-02-23T12:01:12.400Z,19.48
2023-02-23T12:03:47.909Z,19.74
2023-02-23T12:06:30.579Z,19.41
2023-02-23T12:09:06.153Z,19.35
2023-02-23T12:11:40.649Z,19.65
2023-02-23T12:14:21.927Z,19.76
2023-02-23T12:16:53.972Z,19.78
2023-02-23T12:19:26.936Z,19.65
2023-02-23T12:22:03.419Z,19.53
2023-02-23T12:24:42.153Z,19.59
2023-02-23T12:27:15.388Z,19.44
2023-02-23T12:29:59.469Z,19.87
2023-02-23T12:32:32.304Z,19.90
2023-02-23T12:35:07.747Z,19.67
2023-02-23T12:37:40.296Z,20.28
2023-02-23T12:40:17.727Z,20.27
2023-02-23T12:42:55.261Z,19.78
2023-02-23T12:45:30.263Z,20.18
2023-02-23T12:48:07.535Z,19.82
2023-02-23T12:50:43.330Z,19.82
2023-02-23T12:53:21.654Z,19.65
2023-02-23T12:56:05.088Z,20.01
2023-02-23T12:58:42.057Z,19.79
2023-02-23T13:01:18.673Z,19.90
2023-02-23T13:03:58.281Z,19.83
2023-02-23T13:06:36.934Z,20.10
2023-02-23T13:09:19.220Z,20.06
2023-02-23T13:12:08.380Z,20.09
2023-02-23T13:14:44.264Z,20.19
2023-02-23T13:17:30.118Z,20.39
2023-02-23T13:20:02.413Z,20.38
2023-02-23T13:22:38.626Z,20.38
2023-02-23T13:25:21.601Z,20.23
2023-02-23T13:27:53.856Z,19.86
2023-02-23T13:30:22.722Z,20.38
2023-02-23T13:32:53.000Z,20.31
2023-02-23T13:35:22.002Z,20.27
2023-02-23T13:37:54.236Z,20.30
2023-02-23T13:40:30.859Z,20.34
2023-02-23T13:43:09.881Z,20.23
2023-02-23T13:45:57.663Z,19.90
2023-02-23T13:48:56.071Z,19.88
2023-02-23T13:51:34.031Z,20.19
2023-02-23T13:54:06.235Z,20.17
2023-02-23T13:56:42.926Z,20.23
2023-02-23T13:59:18.448Z,20.12
2023-02-23T14:01:49.024Z,20.14
2023-02-23T14:04:24.534Z,19.99
2023-02-23T14:06:56.585Z,19.79
2023-02-23T14:09:30.899Z,19.67
2023-02-23T14:12:05.975Z,19.90
2023-02-23T14:14:43.437Z,19.80
2023-02-23T14:17:50.577Z,20.02
2023-02-23T14:20:40.765Z,19.84
2023-02-23T14:23:53.531Z,20.08
2023-02-23T14:26:39.774Z,20.33
2023-02-23T14:29:28.023Z,20.10
2023-02-23T14:31:59.167Z,19.90
2023-02-23T14:34:49.898Z,19.82
2023-02-23T14:37:25.230Z,19.63
2023-02-23T14:39:55.762Z,20.04
2023-02-23T14:42:27.330Z,19.59
2023-02-23T14:44:56.450Z,20.07
2023-02-23T14:47:27.736Z,20.25
2023-02-23T14:49:58.471Z,20.53
2023-02-23T14:52:30.152Z,20.07
2023-02-23T14:55:15.514Z,19.95
2023-02-23T14:57:44.899Z,20.10
2023-02-23T15:00:23.060Z,20.02
2023-02-23T15:02:57.859Z,20.00
2023-02-23T15:05:27.987Z,19.85
2023-02-23T15:08:01.217Z,20.32
2023-02-23T15:10:33.075Z,20.26
2023-02-23T15:13:02.401Z,20.06
2023-02-23T15:15:31.817Z,20.57
2023-02-23T15:18:04.056Z,20.49
2023-02-23T15:23:04.811Z,21.08
2023-02-23T15:25:39.367Z,20.62
2023-02-23T15:28:23.726Z,20.95
2023-02-23T15:30:54.719Z,21.10
2023-02-23T15:33:28.739Z,21.00
2023-02-23T15:36:03.207Z,20.70
2023-02-23T15:38:43.558Z,21.05
2023-02-23T15:41:23.108Z,20.77
2023-02-23T15:43:51.285Z,20.69
2023-02-23T15:46:25.604Z,21.08
2023-02-23T15:48:55.808Z,20.86
2023-02-23T15:51:32.811Z,20.43
2023-02-23T15:54:03.887Z,20.51
2023-02-23T15:56:35.328Z,20.81
2023-02-23T15:59:08.287Z,20.60
2023-02-23T16:01:44.201Z,20.65
2023-02-23T16:04:18.828Z,20.51
2023-02-23T16:06:55.530Z,20.40
2023-02-23T16:09:29.885Z,20.63
2023-02-23T16:12:02.800Z,20.15
2023-02-23T16:14:35.141Z,20.29
2023-02-23T16:17:11.696Z,20.25
2023-02-23T16:19:41.973Z,20.56
2023-02-23T16:22:21.424Z,20.70
2023-02-23T16:25:02.862Z,20.14
2023-02-23T16:27:31.527Z,20.37
2023-02-23T16:30:01.655Z,20.29
2023-02-23T16:32:38.893Z,20.21
2023-02-23T16:35:16.041Z,20.10
2023-02-23T16:37:53.324Z,20.62
2023-02-23T16:40:22.772Z,20.23
2023-02-23T16:42:51.454Z,20.26
2023-02-23T16:45:20.653Z,20.31
2023-02-23T16:47:48.977Z,20.36
2023-02-23T16:50:21.932Z,20.37
2023-02-23T16:52:53.049Z,20.68
2023-02-23T16:55:25.757Z,20.55
2023-02-23T16:57:55.884Z,20.63
2023-02-23T17:00:26.843Z,20.29
2023-02-23T17:02:55.642Z,20.63
2023-02-23T17:05:24.730Z,20.62
2023-02-23T17:07:53.683Z,20.17
2023-02-23T17:10:26.108Z,20.41
2023-02-23T17:12:55.220Z,20.09
2023-02-23T17:15:25.143Z,20.38
2023-02-23T17:17:56.098Z,20.40
2023-02-23T17:20:25.990Z,19.95
2023-02-23T17:22:54.664Z,20.30
2023-02-23T17:25:26.642Z,20.15
2023-02-23T17:27:55.000Z,20.02
2023-02-23T17:30:23.916Z,20.33
2023-02-23T17:32:54.214Z,20.02
2023-02-23T17:35:22.579Z,20.26
2023-02-23T17:37:50.956Z,19.85
2023-02-23T17:40:26.258Z,19.85
2023-02-23T17:42:56.106Z,19.90
2023-02-23T17:45:24.564Z,20.22
2023-02-23T17:47:53.015Z,20.03
2023-02-23T17:50:21.705Z,19.78
2023-02-23T17:52:50.224Z,19.65
2023-02-23T17:55:19.769Z,19.64
2023-02-23T17:57:48.420Z,20.02
2023-02-23T18:00:19.762Z,19.71
2023-02-23T18:02:48.204Z,19.97
2023-02-23T18:05:16.519Z,19.66
2023-02-23T18:07:48.346Z,19.91
2023-02-23T18:10:17.393Z,19.82
2023-02-23T18:12:45.767Z,19.43
2023-02-23T18:15:13.819Z,19.86
2023-02-23T18:17:43.225Z,19.52
2023-02-23T18:20:14.929Z,19.83
2023-02-23T18:22:43.271Z,19.59
2023-02-23T18:25:20.682Z,19.53
2023-02-23T18:27:51.709Z,19.43
2023-02-23T18:30:20.294Z,19.43
2023-02-23T18:32:49.886Z,19.49
2023-02-23T18:35:18.069Z,19.50
2023-02-23T18:37:46.135Z,19.85
2023-02-23T18:40:21.257Z,19.30
2023-02-23T18:42:49.481Z,19.28
2023-02-23T18:45:18.063Z,19.44
2023-02-23T18:47:46.084Z,19.27
2023-02-23T18:50:19.116Z,19.34
2023-02-23T18:52:48.239Z,19.77
2023-02-23T18:55:16.526Z,19.67
2023-02-23T18:57:44.980Z,19.29
2023-02-23T19:00:14.903Z,19.53
2023-02-23T19:02:43.759Z,19.30
2023-02-23T19:05:12.885Z,19.63
2023-02-23T19:07:42.780Z,19.57
2023-02-23T19:10:14.473Z,19.49
2023-02-23T19:12:42.556Z,19.49
2023-02-23T19:15:12.340Z,19.85
2023-02-23T19:17:40.579Z,19.56
2023-02-23T19:20:13.071Z,19.51
2023-02-23T19:22:43.087Z,19.66
2023-02-23T19:25:15.392Z,19.95
2023-02-23T19:27:43.757Z,20.05
2023-02-23T19:30:14.287Z,20.06
2023-02-23T19:32:44.370Z,20.22
2023-02-23T19:35:15.196Z,19.84
2023-02-23T19:37:49.234Z,19.67
2023-02-23T19:40:20.802Z,19.91
2023-02-23T19:42:49.604Z,19.72
2023-02-23T19:45:18.352Z,19.57
2023-02-23T19:47:46.499Z,19.81
2023-02-23T19:50:18.833Z,19.96
2023-02-23T19:52:49.258Z,19.50
2023-02-23T19:55:17.300Z,19.72
2023-02-23T19:57:45.369Z,19.49
2023-02-23T20:00:14.587Z,19.35
2023-02-23T20:02:43.766Z,19.85
2023-02-23T20:05:13.789Z,19.71
2023-02-23T20:07:41.965Z,19.57
2023-02-23T20:10:16.964Z,19.35
2023-02-23T20:12:45.542Z,19.69
2023-02-23T20:15:14.866Z,19.68
2023-02-23T20:17:42.954Z,19.84
2023-02-23T20:20:12.379Z,19.51
2023-02-23T20:22:41.424Z,19.58
2023-02-23T20:25:12.627Z,19.24
2023-02-23T20:27:41.522Z,19.19
2023-02-23T20:30:10.856Z,19.36
2023-02-23T20:32:39.240Z,19.29
2023-02-23T20:35:07.812Z,19.45
2023-02-23T20:37:35.814Z,19.54
2023-02-23T20:40:15.813Z,19.42
2023-02-23T20:42:47.830Z,19.49
2023-02-23T20:45:19.701Z,19.05
2023-02-23T20:47:52.017Z,19.24
2023-02-23T20:50:21.606Z,19.09
2023-02-23T20:52:50.520Z,19.11
2023-02-23T20:55:19.866Z,19.26
2023-02-23T20:57:49.290Z,18.88
2023-02-23T21:00:22.714Z,18.84
2023-02-23T21:02:55.651Z,18.84
2023-02-23T21:05:25.679Z,19.23
2023-02-23T21:07:55.416Z,18.97
2023-02-23T21:10:23.483Z,19.29
2023-02-23T21:12:54.069Z,19.16
2023-02-23T21:15:22.198Z,18.86
2023-02-23T21:17:50.649Z,19.14
2023-02-23T21:20:20.960Z,18.77
2023-02-23T21:22:50.189Z,19.22
2023-02-23T21:25:20.508Z,19.20
2023-02-23T21:27:48.725Z,19.13
2023-02-23T21:30:20.451Z,19.17
2023-02-23T21:32:50.179Z,19.05
2023-02-23T21:35:19.148Z,18.74
2023-02-23T21:37:48.035Z,18.72
2023-02-23T21:40:20.638Z,18.52
2023-02-23T21:42:49.998Z,18.70
2023-02-23T21:45:20.264Z,18.51
2023-02-23T21:47:49.922Z,18.73
2023-02-23T21:50:19.113Z,18.92
2023-02-23T21:52:48.779Z,18.93
2023-02-23T21:55:21.895Z,18.48
2023-02-23T21:57:51.104Z,18.61
2023-02-23T22:00:20.972Z,18.57
2023-02-23T22:02:49.218Z,18.70
2023-02-23T22:05:18.813Z,18.38
2023-02-23T22:07:51.369Z,18.88
2023-02-23T22:10:21.320Z,18.78
2023-02-23T22:12:53.575Z,18.52
2023-02-23T22:15:27.179Z,18.43
2023-02-23T22:17:55.223Z,18.58
2023-02-23T22:20:23.587Z,18.79
2023-02-23T22:22:51.682Z,18.81
2023-02-23T22:25:21.036Z,18.81
2023-02-23T22:27:49.201Z,18.90
2023-02-23T22:30:17.420Z,18.88
2023-02-23T22:32:47.695Z,18.78
2023-02-23T22:35:15.768Z,18.47
2023-02-23T22:37:43.825Z,18.67
2023-02-23T22:40:15.144Z,18.76
2023-02-23T22:42:48.032Z,18.82
2023-02-23T22:45:17.247Z,18.34
2023-02-23T22:47:46.854Z,18.45
2023-02-23T22:50:18.074Z,18.71
2023-02-23T22:52:46.826Z,18.33
2023-02-23T22:55:14.933Z,18.73
2023-02-23T22:57:43.043Z,18.74
2023-02-23T23:00:13.027Z,18.29
2023-02-23T23:02:41.161Z,18.45
2023-02-23T23:05:13.414Z,18.41
2023-02-23T23:07:42.131Z,18.37
2023-02-23T23:10:12.091Z,18.61
2023-02-23T23:12:40.951Z,18.74
2023-02-23T23:15:14.842Z,18.26
2023-02-23T23:17:48.143Z,18.65
2023-02-23T23:20:22.939Z,18.27
2023-02-23T23:22:51.002Z,18.73
2023-02-23T23:25:23.123Z,18.54
2023-02-23T23:27:55.558Z,18.29
2023-02-23T23:30:26.225Z,18.70
2023-02-23T23:32:54.456Z,18.37
2023-02-23T23:35:25.964Z,18.34
2023-02-23T23:37:54.036Z,18.80
2023-02-23T23:40:24.426Z,18.69
2023-02-23T23:42:53.184Z,18.50
2023-02-23T23:45:24.267Z,18.64
2023-02-23T23:47:52.448Z,18.54
2023-02-23T23:50:26.643Z,18.15
2023-02-23T23:52:57.169Z,18.42
2023-02-23T23:55:31.025Z,18.19
2023-02-23T23:58:00.368Z,18.07
